sensor_id;sensor_type;location;lat;lon;timestamp;temperature;humidity
41256;DHT22;26989;45.524;10.938;2023-04-08T00:00:59;7.80;97.60
41256;DHT22;26989;45.524;10.938;2023-04-08T00:03:26;7.90;97.50
41256;DHT22;26989;45.524;10.938;2023-04-08T00:05:53;7.90;97.40
41256;DHT22;26989;45.524;10.938;2023-04-08T00:08:20;8.00;97.30
41256;DHT22;26989;45.524;10.938;2023-04-08T00:10:46;7.90;97.40
41256;DHT22;26989;45.524;10.938;2023-04-08T00:13:13;7.90;97.30
41256;DHT22;26989;45.524;10.938;2023-04-08T00:15:41;7.90;97.30
41256;DHT22;26989;45.524;10.938;2023-04-08T00:18:08;7.90;97.40
41256;DHT22;26989;45.524;10.938;2023-04-08T00:20:35;7.90;97.30
41256;DHT22;26989;45.524;10.938;2023-04-08T00:23:01;7.80;97.50
41256;DHT22;26989;45.524;10.938;2023-04-08T00:25:29;7.80;97.50
41256;DHT22;26989;45.524;10.938;2023-04-08T00:27:56;7.60;97.80
41256;DHT22;26989;45.524;10.938;2023-04-08T00:30:23;7.60;97.90
41256;DHT22;26989;45.524;10.938;2023-04-08T00:32:50;7.60;97.90
41256;DHT22;26989;45.524;10.938;2023-04-08T00:35:17;7.40;98.00
41256;DHT22;26989;45.524;10.938;2023-04-08T00:37:43;7.20;98.30
41256;DHT22;26989;45.524;10.938;2023-04-08T00:40:11;7.30;98.40
41256;DHT22;26989;45.524;10.938;2023-04-08T00:42:38;7.30;98.50
41256;DHT22;26989;45.524;10.938;2023-04-08T00:45:05;7.50;98.00
41256;DHT22;26989;45.524;10.938;2023-04-08T00:47:34;7.30;98.20
41256;DHT22;26989;45.524;10.938;2023-04-08T00:50:02;7.20;98.30
41256;DHT22;26989;45.524;10.938;2023-04-08T00:52:31;7.20;98.20
41256;DHT22;26989;45.524;10.938;2023-04-08T00:54:59;7.20;98.10
41256;DHT22;26989;45.524;10.938;2023-04-08T00:57:26;7.10;98.00
41256;DHT22;26989;45.524;10.938;2023-04-08T00:59:53;7.00;98.10
41256;DHT22;26989;45.524;10.938;2023-04-08T01:07:59;7.00;98.10
41256;DHT22;26989;45.524;10.938;2023-04-08T01:10:32;6.90;98.10
41256;DHT22;26989;45.524;10.938;2023-04-08T01:13:05;6.80;98.20
41256;DHT22;26989;45.524;10.938;2023-04-08T01:15:36;6.80;98.30
41256;DHT22;26989;45.524;10.938;2023-04-08T01:18:09;6.70;98.20
41256;DHT22;26989;45.524;10.938;2023-04-08T01:20:39;6.70;98.30
41256;DHT22;26989;45.524;10.938;2023-04-08T01:23:29;6.70;98.40
41256;DHT22;26989;45.524;10.938;2023-04-08T01:25:58;6.70;98.10
41256;DHT22;26989;45.524;10.938;2023-04-08T01:28:28;6.60;98.30
41256;DHT22;26989;45.524;10.938;2023-04-08T01:30:58;6.60;98.40
41256;DHT22;26989;45.524;10.938;2023-04-08T01:33:27;6.60;98.50
41256;DHT22;26989;45.524;10.938;2023-04-08T01:35:55;6.50;98.60
41256;DHT22;26989;45.524;10.938;2023-04-08T01:38:25;6.50;98.70
41256;DHT22;26989;45.524;10.938;2023-04-08T01:40:55;6.40;98.70
41256;DHT22;26989;45.524;10.938;2023-04-08T01:43:23;6.40;98.80
41256;DHT22;26989;45.524;10.938;2023-04-08T01:45:52;6.40;98.90
41256;DHT22;26989;45.524;10.938;2023-04-08T01:48:24;6.50;98.80
41256;DHT22;26989;45.524;10.938;2023-04-08T01:50:51;6.50;98.80
41256;DHT22;26989;45.524;10.938;2023-04-08T01:53:18;6.40;98.80
41256;DHT22;26989;45.524;10.938;2023-04-08T01:55:46;6.50;98.60
41256;DHT22;26989;45.524;10.938;2023-04-08T01:58:19;6.60;98.40
41256;DHT22;26989;45.524;10.938;2023-04-08T02:00:47;6.60;98.40
41256;DHT22;26989;45.524;10.938;2023-04-08T02:03:17;6.70;98.40
41256;DHT22;26989;45.524;10.938;2023-04-08T02:05:45;6.70;98.40
41256;DHT22;26989;45.524;10.938;2023-04-08T02:08:12;6.60;98.60
41256;DHT22;26989;45.524;10.938;2023-04-08T02:10:39;6.60;98.80
41256;DHT22;26989;45.524;10.938;2023-04-08T02:13:06;6.50;98.90
41256;DHT22;26989;45.524;10.938;2023-04-08T02:15:36;6.50;98.90
41256;DHT22;26989;45.524;10.938;2023-04-08T02:18:12;6.50;99.00
41256;DHT22;26989;45.524;10.938;2023-04-08T02:20:49;6.60;98.90
41256;DHT22;26989;45.524;10.938;2023-04-08T02:23:21;6.70;98.70
41256;DHT22;26989;45.524;10.938;2023-04-08T02:25:52;6.60;98.80
41256;DHT22;26989;45.524;10.938;2023-04-08T02:28:20;6.70;98.70
41256;DHT22;26989;45.524;10.938;2023-04-08T02:30:49;6.90;98.40
41256;DHT22;26989;45.524;10.938;2023-04-08T02:33:23;7.00;98.30
41256;DHT22;26989;45.524;10.938;2023-04-08T02:35:50;7.20;97.90
41256;DHT22;26989;45.524;10.938;2023-04-08T02:38:20;7.20;97.70
41256;DHT22;26989;45.524;10.938;2023-04-08T02:40:49;7.30;97.50
41256;DHT22;26989;45.524;10.938;2023-04-08T02:43:16;7.30;97.50
41256;DHT22;26989;45.524;10.938;2023-04-08T02:45:43;7.40;97.60
41256;DHT22;26989;45.524;10.938;2023-04-08T02:48:11;7.40;97.60
41256;DHT22;26989;45.524;10.938;2023-04-08T02:50:38;7.40;97.60
41256;DHT22;26989;45.524;10.938;2023-04-08T02:53:07;7.40;97.90
41256;DHT22;26989;45.524;10.938;2023-04-08T02:55:34;7.40;97.80
41256;DHT22;26989;45.524;10.938;2023-04-08T02:58:14;7.40;97.90
41256;DHT22;26989;45.524;10.938;2023-04-08T03:00:41;7.40;98.00
41256;DHT22;26989;45.524;10.938;2023-04-08T03:03:08;7.50;97.80
41256;DHT22;26989;45.524;10.938;2023-04-08T03:05:35;7.50;97.90
41256;DHT22;26989;45.524;10.938;2023-04-08T03:08:02;7.60;98.00
41256;DHT22;26989;45.524;10.938;2023-04-08T03:10:29;7.70;97.80
41256;DHT22;26989;45.524;10.938;2023-04-08T03:12:56;7.70;97.70
41256;DHT22;26989;45.524;10.938;2023-04-08T03:15:23;7.90;97.40
41256;DHT22;26989;45.524;10.938;2023-04-08T03:17:50;7.90;97.40
41256;DHT22;26989;45.524;10.938;2023-04-08T03:20:17;8.10;96.90
41256;DHT22;26989;45.524;10.938;2023-04-08T03:22:44;8.20;96.80
41256;DHT22;26989;45.524;10.938;2023-04-08T03:25:11;8.20;96.80
41256;DHT22;26989;45.524;10.938;2023-04-08T03:27:37;8.10;97.00
41256;DHT22;26989;45.524;10.938;2023-04-08T03:30:05;8.10;97.00
41256;DHT22;26989;45.524;10.938;2023-04-08T03:32:32;8.20;96.80
41256;DHT22;26989;45.524;10.938;2023-04-08T03:34:59;8.20;96.60
41256;DHT22;26989;45.524;10.938;2023-04-08T03:37:25;8.20;96.70
41256;DHT22;26989;45.524;10.938;2023-04-08T03:39:54;8.30;96.60
41256;DHT22;26989;45.524;10.938;2023-04-08T03:42:21;8.20;96.60
41256;DHT22;26989;45.524;10.938;2023-04-08T03:44:48;8.20;96.80
41256;DHT22;26989;45.524;10.938;2023-04-08T03:47:15;8.10;96.90
41256;DHT22;26989;45.524;10.938;2023-04-08T03:49:42;8.10;97.00
41256;DHT22;26989;45.524;10.938;2023-04-08T03:52:08;8.00;97.10
41256;DHT22;26989;45.524;10.938;2023-04-08T03:54:35;8.00;97.10
41256;DHT22;26989;45.524;10.938;2023-04-08T03:57:02;8.00;97.30
41256;DHT22;26989;45.524;10.938;2023-04-08T03:59:32;7.90;97.40
41256;DHT22;26989;45.524;10.938;2023-04-08T04:01:59;7.90;97.50
41256;DHT22;26989;45.524;10.938;2023-04-08T04:04:26;7.80;97.70
41256;DHT22;26989;45.524;10.938;2023-04-08T04:06:53;7.80;97.80
41256;DHT22;26989;45.524;10.938;2023-04-08T04:09:21;7.80;97.80
41256;DHT22;26989;45.524;10.938;2023-04-08T04:11:48;7.80;97.70
41256;DHT22;26989;45.524;10.938;2023-04-08T04:14:15;7.80;97.70
41256;DHT22;26989;45.524;10.938;2023-04-08T04:16:42;7.90;97.70
41256;DHT22;26989;45.524;10.938;2023-04-08T04:19:08;7.90;97.60
41256;DHT22;26989;45.524;10.938;2023-04-08T04:21:35;8.00;97.40
41256;DHT22;26989;45.524;10.938;2023-04-08T04:24:02;8.10;97.30
41256;DHT22;26989;45.524;10.938;2023-04-08T04:26:29;8.10;97.10
41256;DHT22;26989;45.524;10.938;2023-04-08T04:28:56;8.20;96.90
41256;DHT22;26989;45.524;10.938;2023-04-08T04:31:24;8.20;96.90
41256;DHT22;26989;45.524;10.938;2023-04-08T04:33:54;8.30;96.60
41256;DHT22;26989;45.524;10.938;2023-04-08T04:36:20;8.30;96.90
41256;DHT22;26989;45.524;10.938;2023-04-08T04:38:48;8.30;96.90
41256;DHT22;26989;45.524;10.938;2023-04-08T04:41:16;8.20;97.00
41256;DHT22;26989;45.524;10.938;2023-04-08T04:43:43;8.20;97.30
41256;DHT22;26989;45.524;10.938;2023-04-08T04:46:10;8.20;97.40
41256;DHT22;26989;45.524;10.938;2023-04-08T04:48:37;8.10;97.50
41256;DHT22;26989;45.524;10.938;2023-04-08T04:51:04;8.00;97.60
41256;DHT22;26989;45.524;10.938;2023-04-08T04:53:33;7.90;97.80
41256;DHT22;26989;45.524;10.938;2023-04-08T04:55:59;8.10;97.70
41256;DHT22;26989;45.524;10.938;2023-04-08T04:58:29;8.20;97.40
41256;DHT22;26989;45.524;10.938;2023-04-08T05:00:56;8.10;97.50
41256;DHT22;26989;45.524;10.938;2023-04-08T05:03:23;8.00;97.90
41256;DHT22;26989;45.524;10.938;2023-04-08T05:05:51;8.00;98.40
41256;DHT22;26989;45.524;10.938;2023-04-08T05:08:19;8.00;98.10
41256;DHT22;26989;45.524;10.938;2023-04-08T05:10:46;8.00;98.20
41256;DHT22;26989;45.524;10.938;2023-04-08T05:13:16;8.00;98.20
41256;DHT22;26989;45.524;10.938;2023-04-08T05:15:43;8.00;98.20
41256;DHT22;26989;45.524;10.938;2023-04-08T05:18:13;8.00;98.40
41256;DHT22;26989;45.524;10.938;2023-04-08T05:20:40;7.90;98.60
41256;DHT22;26989;45.524;10.938;2023-04-08T05:23:07;8.00;98.80
41256;DHT22;26989;45.524;10.938;2023-04-08T05:25:34;7.90;99.20
41256;DHT22;26989;45.524;10.938;2023-04-08T05:28:02;7.90;99.60
41256;DHT22;26989;45.524;10.938;2023-04-08T05:30:29;7.90;99.70
41256;DHT22;26989;45.524;10.938;2023-04-08T05:32:58;7.90;99.50
41256;DHT22;26989;45.524;10.938;2023-04-08T05:35:27;8.00;99.60
41256;DHT22;26989;45.524;10.938;2023-04-08T05:37:55;8.00;99.30
41256;DHT22;26989;45.524;10.938;2023-04-08T05:40:22;8.10;99.50
41256;DHT22;26989;45.524;10.938;2023-04-08T05:42:49;8.20;99.40
41256;DHT22;26989;45.524;10.938;2023-04-08T05:45:16;8.10;99.30
41256;DHT22;26989;45.524;10.938;2023-04-08T05:47:43;8.00;99.80
41256;DHT22;26989;45.524;10.938;2023-04-08T05:50:10;8.00;99.90
41256;DHT22;26989;45.524;10.938;2023-04-08T05:52:41;8.00;99.90
41256;DHT22;26989;45.524;10.938;2023-04-08T05:55:12;7.80;99.90
41256;DHT22;26989;45.524;10.938;2023-04-08T05:57:40;7.90;99.90
41256;DHT22;26989;45.524;10.938;2023-04-08T06:00:08;7.90;99.90
41256;DHT22;26989;45.524;10.938;2023-04-08T06:02:36;8.00;99.90
41256;DHT22;26989;45.524;10.938;2023-04-08T06:05:10;8.10;99.90
41256;DHT22;26989;45.524;10.938;2023-04-08T06:07:37;8.20;99.90
41256;DHT22;26989;45.524;10.938;2023-04-08T06:10:04;8.40;99.60
41256;DHT22;26989;45.524;10.938;2023-04-08T06:12:35;8.50;99.20
41256;DHT22;26989;45.524;10.938;2023-04-08T06:15:03;8.70;99.10
41256;DHT22;26989;45.524;10.938;2023-04-08T06:17:30;8.90;98.50
41256;DHT22;26989;45.524;10.938;2023-04-08T06:19:57;9.20;98.40
41256;DHT22;26989;45.524;10.938;2023-04-08T06:22:25;9.90;97.40
41256;DHT22;26989;45.524;10.938;2023-04-08T06:24:54;10.00;97.00
41256;DHT22;26989;45.524;10.938;2023-04-08T06:27:21;10.20;96.80
41256;DHT22;26989;45.524;10.938;2023-04-08T06:29:48;10.30;95.50
41256;DHT22;26989;45.524;10.938;2023-04-08T06:32:15;10.10;96.40
41256;DHT22;26989;45.524;10.938;2023-04-08T06:34:44;10.20;95.90
41256;DHT22;26989;45.524;10.938;2023-04-08T06:37:12;10.40;95.90
41256;DHT22;26989;45.524;10.938;2023-04-08T06:39:39;10.10;95.90
41256;DHT22;26989;45.524;10.938;2023-04-08T06:42:06;10.30;95.90
41256;DHT22;26989;45.524;10.938;2023-04-08T06:44:33;10.10;96.10
41256;DHT22;26989;45.524;10.938;2023-04-08T06:47:00;10.30;96.20
41256;DHT22;26989;45.524;10.938;2023-04-08T06:49:28;10.30;96.30
41256;DHT22;26989;45.524;10.938;2023-04-08T06:51:56;10.10;96.00
41256;DHT22;26989;45.524;10.938;2023-04-08T06:54:23;10.10;96.20
41256;DHT22;26989;45.524;10.938;2023-04-08T06:56:49;10.40;96.50
41256;DHT22;26989;45.524;10.938;2023-04-08T06:59:16;10.60;95.50
41256;DHT22;26989;45.524;10.938;2023-04-08T07:01:43;11.00;94.70
41256;DHT22;26989;45.524;10.938;2023-04-08T07:04:11;11.90;93.70
41256;DHT22;26989;45.524;10.938;2023-04-08T07:06:38;12.10;93.80
41256;DHT22;26989;45.524;10.938;2023-04-08T07:09:05;11.90;93.20
41256;DHT22;26989;45.524;10.938;2023-04-08T07:11:32;12.20;92.60
41256;DHT22;26989;45.524;10.938;2023-04-08T07:13:59;12.10;92.80
41256;DHT22;26989;45.524;10.938;2023-04-08T07:16:26;12.10;92.90
41256;DHT22;26989;45.524;10.938;2023-04-08T07:18:53;11.50;93.40
41256;DHT22;26989;45.524;10.938;2023-04-08T07:21:24;10.90;94.40
41256;DHT22;26989;45.524;10.938;2023-04-08T07:23:51;10.60;94.40
41256;DHT22;26989;45.524;10.938;2023-04-08T07:26:18;10.70;94.80
41256;DHT22;26989;45.524;10.938;2023-04-08T07:28:48;11.00;94.20
41256;DHT22;26989;45.524;10.938;2023-04-08T07:31:16;11.00;93.80
41256;DHT22;26989;45.524;10.938;2023-04-08T07:33:44;11.40;93.70
41256;DHT22;26989;45.524;10.938;2023-04-08T07:36:12;11.40;93.40
41256;DHT22;26989;45.524;10.938;2023-04-08T07:38:39;11.50;92.90
41256;DHT22;26989;45.524;10.938;2023-04-08T07:41:07;11.80;92.80
41256;DHT22;26989;45.524;10.938;2023-04-08T07:43:35;12.00;92.60
41256;DHT22;26989;45.524;10.938;2023-04-08T07:46:07;12.20;92.80
41256;DHT22;26989;45.524;10.938;2023-04-08T07:48:34;12.20;92.70
41256;DHT22;26989;45.524;10.938;2023-04-08T07:51:06;12.10;92.90
41256;DHT22;26989;45.524;10.938;2023-04-08T07:53:38;12.00;93.50
41256;DHT22;26989;45.524;10.938;2023-04-08T07:56:15;12.60;93.20
41256;DHT22;26989;45.524;10.938;2023-04-08T07:58:45;12.90;92.70
41256;DHT22;26989;45.524;10.938;2023-04-08T08:01:20;13.50;92.20
41256;DHT22;26989;45.524;10.938;2023-04-08T08:03:50;13.70;91.90
41256;DHT22;26989;45.524;10.938;2023-04-08T08:06:19;13.90;91.90
41256;DHT22;26989;45.524;10.938;2023-04-08T08:08:47;13.30;92.30
41256;DHT22;26989;45.524;10.938;2023-04-08T08:11:14;13.30;92.30
41256;DHT22;26989;45.524;10.938;2023-04-08T08:13:41;13.30;92.20
41256;DHT22;26989;45.524;10.938;2023-04-08T08:16:08;13.30;92.30
41256;DHT22;26989;45.524;10.938;2023-04-08T08:18:38;13.40;92.50
41256;DHT22;26989;45.524;10.938;2023-04-08T08:21:07;13.40;92.80
41256;DHT22;26989;45.524;10.938;2023-04-08T08:23:35;13.30;92.80
41256;DHT22;26989;45.524;10.938;2023-04-08T08:26:07;13.20;93.10
41256;DHT22;26989;45.524;10.938;2023-04-08T08:28:38;12.90;93.20
41256;DHT22;26989;45.524;10.938;2023-04-08T08:31:06;12.80;93.50
41256;DHT22;26989;45.524;10.938;2023-04-08T08:33:33;12.70;93.80
41256;DHT22;26989;45.524;10.938;2023-04-08T08:36:04;12.70;93.50
41256;DHT22;26989;45.524;10.938;2023-04-08T08:38:32;12.90;93.80
41256;DHT22;26989;45.524;10.938;2023-04-08T08:41:00;12.90;93.30
41256;DHT22;26989;45.524;10.938;2023-04-08T08:43:28;13.00;93.20
41256;DHT22;26989;45.524;10.938;2023-04-08T08:45:55;13.20;93.50
41256;DHT22;26989;45.524;10.938;2023-04-08T08:48:22;13.10;92.80
41256;DHT22;26989;45.524;10.938;2023-04-08T08:50:49;13.20;92.80
41256;DHT22;26989;45.524;10.938;2023-04-08T08:53:16;13.20;93.00
41256;DHT22;26989;45.524;10.938;2023-04-08T08:55:48;13.20;93.30
41256;DHT22;26989;45.524;10.938;2023-04-08T08:58:18;13.30;92.90
41256;DHT22;26989;45.524;10.938;2023-04-08T09:00:45;13.30;92.80
41256;DHT22;26989;45.524;10.938;2023-04-08T09:03:21;13.30;92.80
41256;DHT22;26989;45.524;10.938;2023-04-08T09:05:56;13.40;93.00
41256;DHT22;26989;45.524;10.938;2023-04-08T09:08:32;13.20;92.90
41256;DHT22;26989;45.524;10.938;2023-04-08T09:11:13;13.50;93.30
41256;DHT22;26989;45.524;10.938;2023-04-08T09:13:42;13.60;92.80
41256;DHT22;26989;45.524;10.938;2023-04-08T09:16:11;13.70;92.30
41256;DHT22;26989;45.524;10.938;2023-04-08T09:18:39;13.70;92.20
41256;DHT22;26989;45.524;10.938;2023-04-08T09:21:09;13.80;92.50
41256;DHT22;26989;45.524;10.938;2023-04-08T09:26:16;14.00;92.40
41256;DHT22;26989;45.524;10.938;2023-04-08T09:31:28;14.00;91.20
41256;DHT22;26989;45.524;10.938;2023-04-08T09:33:59;14.00;91.80
41256;DHT22;26989;45.524;10.938;2023-04-08T09:36:28;14.20;92.00
41256;DHT22;26989;45.524;10.938;2023-04-08T09:38:55;14.40;92.00
41256;DHT22;26989;45.524;10.938;2023-04-08T09:41:22;14.60;91.60
41256;DHT22;26989;45.524;10.938;2023-04-08T09:43:53;14.80;91.80
41256;DHT22;26989;45.524;10.938;2023-04-08T09:46:50;15.10;91.50
41256;DHT22;26989;45.524;10.938;2023-04-08T09:49:27;15.40;91.00
41256;DHT22;26989;45.524;10.938;2023-04-08T09:52:07;15.40;90.60
41256;DHT22;26989;45.524;10.938;2023-04-08T09:55:01;15.60;90.80
41256;DHT22;26989;45.524;10.938;2023-04-08T09:57:54;15.70;90.60
41256;DHT22;26989;45.524;10.938;2023-04-08T10:00:31;15.50;91.00
41256;DHT22;26989;45.524;10.938;2023-04-08T10:06:07;15.40;91.00
41256;DHT22;26989;45.524;10.938;2023-04-08T10:08:35;15.70;91.30
41256;DHT22;26989;45.524;10.938;2023-04-08T10:11:04;15.80;90.90
41256;DHT22;26989;45.524;10.938;2023-04-08T10:13:32;15.80;90.80
41256;DHT22;26989;45.524;10.938;2023-04-08T10:16:19;15.80;90.50
41256;DHT22;26989;45.524;10.938;2023-04-08T10:18:50;15.60;90.30
41256;DHT22;26989;45.524;10.938;2023-04-08T10:21:41;15.50;90.30
41256;DHT22;26989;45.524;10.938;2023-04-08T10:24:28;15.30;90.40
41256;DHT22;26989;45.524;10.938;2023-04-08T10:26:55;15.50;90.40
41256;DHT22;26989;45.524;10.938;2023-04-08T10:29:31;15.90;90.20
41256;DHT22;26989;45.524;10.938;2023-04-08T10:31:59;16.20;89.60
41256;DHT22;26989;45.524;10.938;2023-04-08T10:34:27;16.20;89.00
41256;DHT22;26989;45.524;10.938;2023-04-08T10:36:55;15.50;90.10
41256;DHT22;26989;45.524;10.938;2023-04-08T10:39:24;15.70;90.50
41256;DHT22;26989;45.524;10.938;2023-04-08T10:41:53;15.90;90.60
41256;DHT22;26989;45.524;10.938;2023-04-08T10:44:25;15.90;90.20
41256;DHT22;26989;45.524;10.938;2023-04-08T10:46:53;16.00;89.80
41256;DHT22;26989;45.524;10.938;2023-04-08T10:49:20;16.20;89.20
41256;DHT22;26989;45.524;10.938;2023-04-08T10:51:48;16.30;89.30
41256;DHT22;26989;45.524;10.938;2023-04-08T10:54:17;16.20;89.10
41256;DHT22;26989;45.524;10.938;2023-04-08T10:56:50;16.10;89.80
41256;DHT22;26989;45.524;10.938;2023-04-08T10:59:29;16.00;89.80
41256;DHT22;26989;45.524;10.938;2023-04-08T11:01:56;15.90;90.20
41256;DHT22;26989;45.524;10.938;2023-04-08T11:04:24;15.80;89.60
41256;DHT22;26989;45.524;10.938;2023-04-08T11:06:54;16.00;88.60
41256;DHT22;26989;45.524;10.938;2023-04-08T11:09:21;15.30;90.00
41256;DHT22;26989;45.524;10.938;2023-04-08T11:11:49;15.20;90.10
41256;DHT22;26989;45.524;10.938;2023-04-08T11:14:18;15.40;90.50
41256;DHT22;26989;45.524;10.938;2023-04-08T11:16:47;15.50;90.20
41256;DHT22;26989;45.524;10.938;2023-04-08T11:19:14;15.50;89.90
41256;DHT22;26989;45.524;10.938;2023-04-08T11:21:41;15.00;90.50
41256;DHT22;26989;45.524;10.938;2023-04-08T11:24:10;15.20;90.20
41256;DHT22;26989;45.524;10.938;2023-04-08T11:26:42;14.80;90.30
41256;DHT22;26989;45.524;10.938;2023-04-08T11:29:23;14.90;90.40
41256;DHT22;26989;45.524;10.938;2023-04-08T11:32:05;15.30;90.20
41256;DHT22;26989;45.524;10.938;2023-04-08T11:34:38;15.70;89.90
41256;DHT22;26989;45.524;10.938;2023-04-08T11:37:07;15.80;89.30
41256;DHT22;26989;45.524;10.938;2023-04-08T11:39:34;15.90;88.80
41256;DHT22;26989;45.524;10.938;2023-04-08T11:42:09;15.70;88.70
41256;DHT22;26989;45.524;10.938;2023-04-08T11:45:14;15.90;89.40
41256;DHT22;26989;45.524;10.938;2023-04-08T11:47:42;16.20;87.90
41256;DHT22;26989;45.524;10.938;2023-04-08T11:50:12;15.90;87.60
41256;DHT22;26989;45.524;10.938;2023-04-08T11:52:48;16.10;87.90
41256;DHT22;26989;45.524;10.938;2023-04-08T11:55:26;16.50;88.00
41256;DHT22;26989;45.524;10.938;2023-04-08T11:57:54;17.00;88.30
41256;DHT22;26989;45.524;10.938;2023-04-08T12:00:22;16.90;85.80
41256;DHT22;26989;45.524;10.938;2023-04-08T12:02:51;16.70;85.80
41256;DHT22;26989;45.524;10.938;2023-04-08T12:05:20;16.80;86.00
41256;DHT22;26989;45.524;10.938;2023-04-08T12:07:48;16.60;86.20
41256;DHT22;26989;45.524;10.938;2023-04-08T12:10:15;16.50;86.20
41256;DHT22;26989;45.524;10.938;2023-04-08T12:12:42;16.90;86.60
41256;DHT22;26989;45.524;10.938;2023-04-08T12:15:10;16.10;86.30
41256;DHT22;26989;45.524;10.938;2023-04-08T12:17:38;16.80;87.50
41256;DHT22;26989;45.524;10.938;2023-04-08T12:20:05;17.30;85.80
41256;DHT22;26989;45.524;10.938;2023-04-08T12:22:33;17.60;84.10
41256;DHT22;26989;45.524;10.938;2023-04-08T12:25:15;16.80;84.80
41256;DHT22;26989;45.524;10.938;2023-04-08T12:27:46;17.20;85.00
41256;DHT22;26989;45.524;10.938;2023-04-08T12:30:31;15.50;87.40
41256;DHT22;26989;45.524;10.938;2023-04-08T12:33:08;15.60;87.50
41256;DHT22;26989;45.524;10.938;2023-04-08T12:35:35;16.00;86.40
41256;DHT22;26989;45.524;10.938;2023-04-08T12:38:02;16.50;87.20
41256;DHT22;26989;45.524;10.938;2023-04-08T12:40:43;16.70;85.90
41256;DHT22;26989;45.524;10.938;2023-04-08T12:43:17;16.80;84.40
41256;DHT22;26989;45.524;10.938;2023-04-08T12:45:48;16.80;85.20
41256;DHT22;26989;45.524;10.938;2023-04-08T12:48:15;16.80;85.60
41256;DHT22;26989;45.524;10.938;2023-04-08T12:50:42;16.80;85.30
41256;DHT22;26989;45.524;10.938;2023-04-08T12:53:11;16.80;85.10
41256;DHT22;26989;45.524;10.938;2023-04-08T12:55:38;16.70;84.70
41256;DHT22;26989;45.524;10.938;2023-04-08T12:58:05;17.00;85.60
41256;DHT22;26989;45.524;10.938;2023-04-08T13:00:33;17.50;85.20
41256;DHT22;26989;45.524;10.938;2023-04-08T13:03:00;17.70;83.40
41256;DHT22;26989;45.524;10.938;2023-04-08T13:05:27;18.10;83.10
41256;DHT22;26989;45.524;10.938;2023-04-08T13:08:10;18.40;81.60
41256;DHT22;26989;45.524;10.938;2023-04-08T13:10:42;18.50;82.40
41256;DHT22;26989;45.524;10.938;2023-04-08T13:13:09;18.60;81.60
41256;DHT22;26989;45.524;10.938;2023-04-08T13:15:36;18.40;80.80
41256;DHT22;26989;45.524;10.938;2023-04-08T13:18:04;18.20;79.70
41256;DHT22;26989;45.524;10.938;2023-04-08T13:20:35;18.40;80.60
41256;DHT22;26989;45.524;10.938;2023-04-08T13:23:16;18.10;82.10
41256;DHT22;26989;45.524;10.938;2023-04-08T13:25:47;18.20;82.20
41256;DHT22;26989;45.524;10.938;2023-04-08T13:28:14;18.30;81.30
41256;DHT22;26989;45.524;10.938;2023-04-08T13:30:43;18.40;81.10
41256;DHT22;26989;45.524;10.938;2023-04-08T13:33:24;18.20;81.60
41256;DHT22;26989;45.524;10.938;2023-04-08T13:35:50;18.10;81.40
41256;DHT22;26989;45.524;10.938;2023-04-08T13:38:19;18.00;80.80
41256;DHT22;26989;45.524;10.938;2023-04-08T13:40:46;17.90;80.70
41256;DHT22;26989;45.524;10.938;2023-04-08T13:43:14;17.90;80.10
41256;DHT22;26989;45.524;10.938;2023-04-08T13:45:41;17.00;80.50
41256;DHT22;26989;45.524;10.938;2023-04-08T13:48:09;17.40;80.60
41256;DHT22;26989;45.524;10.938;2023-04-08T13:50:37;17.50;81.70
41256;DHT22;26989;45.524;10.938;2023-04-08T13:53:05;17.70;81.00
41256;DHT22;26989;45.524;10.938;2023-04-08T13:55:32;17.80;80.80
41256;DHT22;26989;45.524;10.938;2023-04-08T13:58:00;18.10;79.70
41256;DHT22;26989;45.524;10.938;2023-04-08T14:00:44;18.40;80.10
41256;DHT22;26989;45.524;10.938;2023-04-08T14:03:11;18.80;79.20
41256;DHT22;26989;45.524;10.938;2023-04-08T14:05:38;19.10;79.60
41256;DHT22;26989;45.524;10.938;2023-04-08T14:08:05;19.20;78.90
41256;DHT22;26989;45.524;10.938;2023-04-08T14:10:32;17.90;78.40
41256;DHT22;26989;45.524;10.938;2023-04-08T14:12:59;18.60;78.50
41256;DHT22;26989;45.524;10.938;2023-04-08T14:15:31;17.70;79.50
41256;DHT22;26989;45.524;10.938;2023-04-08T14:18:00;17.60;79.70
41256;DHT22;26989;45.524;10.938;2023-04-08T14:20:28;17.40;80.20
41256;DHT22;26989;45.524;10.938;2023-04-08T14:22:55;17.90;79.70
41256;DHT22;26989;45.524;10.938;2023-04-08T14:25:38;18.00;78.90
41256;DHT22;26989;45.524;10.938;2023-04-08T14:28:05;18.20;79.10
41256;DHT22;26989;45.524;10.938;2023-04-08T14:30:32;17.90;77.60
41256;DHT22;26989;45.524;10.938;2023-04-08T14:33:00;17.80;79.80
41256;DHT22;26989;45.524;10.938;2023-04-08T14:35:27;17.60;79.80
41256;DHT22;26989;45.524;10.938;2023-04-08T14:37:55;17.60;79.80
41256;DHT22;26989;45.524;10.938;2023-04-08T14:40:22;17.10;79.00
41256;DHT22;26989;45.524;10.938;2023-04-08T14:42:49;16.90;79.90
41256;DHT22;26989;45.524;10.938;2023-04-08T14:45:18;16.80;80.40
41256;DHT22;26989;45.524;10.938;2023-04-08T14:47:45;16.80;80.60
41256;DHT22;26989;45.524;10.938;2023-04-08T14:50:26;16.70;80.90
41256;DHT22;26989;45.524;10.938;2023-04-08T14:52:53;16.70;80.80
41256;DHT22;26989;45.524;10.938;2023-04-08T14:55:22;16.50;80.80
41256;DHT22;26989;45.524;10.938;2023-04-08T14:57:49;16.30;81.50
41256;DHT22;26989;45.524;10.938;2023-04-08T15:00:16;16.20;81.70
41256;DHT22;26989;45.524;10.938;2023-04-08T15:02:46;16.10;81.70
41256;DHT22;26989;45.524;10.938;2023-04-08T15:05:14;16.00;81.80
41256;DHT22;26989;45.524;10.938;2023-04-08T15:07:41;15.80;81.70
41256;DHT22;26989;45.524;10.938;2023-04-08T15:10:23;15.70;81.20
41256;DHT22;26989;45.524;10.938;2023-04-08T15:12:50;15.60;81.50
41256;DHT22;26989;45.524;10.938;2023-04-08T15:15:17;15.50;81.80
41256;DHT22;26989;45.524;10.938;2023-04-08T15:17:44;15.40;81.90
41256;DHT22;26989;45.524;10.938;2023-04-08T15:20:11;15.40;81.50
41256;DHT22;26989;45.524;10.938;2023-04-08T15:22:39;15.30;82.00
41256;DHT22;26989;45.524;10.938;2023-04-08T15:25:06;15.10;82.40
41256;DHT22;26989;45.524;10.938;2023-04-08T15:27:33;15.00;83.00
41256;DHT22;26989;45.524;10.938;2023-04-08T15:30:00;15.00;83.60
41256;DHT22;26989;45.524;10.938;2023-04-08T15:32:44;14.90;85.30
41256;DHT22;26989;45.524;10.938;2023-04-08T15:35:15;14.40;88.10
41256;DHT22;26989;45.524;10.938;2023-04-08T15:37:42;14.40;87.30
41256;DHT22;26989;45.524;10.938;2023-04-08T15:40:09;14.30;88.50
41256;DHT22;26989;45.524;10.938;2023-04-08T15:42:36;14.10;90.00
41256;DHT22;26989;45.524;10.938;2023-04-08T15:45:11;13.70;91.40
41256;DHT22;26989;45.524;10.938;2023-04-08T15:47:38;13.60;92.10
41256;DHT22;26989;45.524;10.938;2023-04-08T15:50:05;13.40;92.70